Time;durP1;ratioP1;P1;durP2;ratioP2;P2;SDS_P1;SDS_P2;PMS_P1;PMS_P2;Temp;Humidity;BMP_temperature;BMP_pressure;BME280_temperature;BME280_humidity;BME280_pressure;Samples;Min_cycle;Max_cycle;Signal;HPM_P1;HPM_P2
2023/04/07 00:02:14;;;;;;;9.40;2.20;;;;;;;;;;5058612;27;94028;-78
2023/04/07 00:04:41;;;;;;;6.72;2.10;;;;;;;;;;5059149;27;93390;-78
2023/04/07 00:07:07;;;;;;;7.80;2.30;;;;;;;;;;5059497;27;92167;-78
2023/04/07 00:09:34;;;;;;;6.78;1.98;;;;;;;;;;5059519;27;92439;-78
2023/04/07 00:12:01;;;;;;;6.45;2.30;;;;;;;;;;5061152;27;93180;-78
2023/04/07 00:14:27;;;;;;;;;;;;;;;;;;5041418;27;92693;-79
2023/04/07 00:16:54;;;;;;;6.70;2.00;;;;;;;;;;5061435;27;91995;-79
2023/04/07 00:19:20;;;;;;;6.90;1.90;;;;;;;;;;5062108;27;92690;-78
2023/04/07 00:21:47;;;;;;;5.18;1.85;;;;;;;;;;5040387;27;92446;-79
2023/04/07 00:24:13;;;;;;;6.28;1.73;;;;;;;;;;5059873;27;95603;-79
2023/04/07 00:26:52;;;;;;;8.23;2.05;;;;;;;;;;5057144;27;92390;-78
2023/04/07 00:29:19;;;;;;;6.97;1.73;;;;;;;;;;5062165;27;92520;-79
2023/04/07 00:31:45;;;;;;;7.38;1.77;;;;;;;;;;5026194;27;94697;-79
2023/04/07 00:34:12;;;;;;;6.00;1.80;;;;;;;;;;5023278;27;92767;-78
2023/04/07 00:36:40;;;;;;;5.78;1.95;;;;;;;;;;5043044;27;94523;-79
2023/04/07 00:39:06;;;;;;;6.63;2.13;;;;;;;;;;5062890;27;93206;-79
2023/04/07 00:41:34;;;;;;;;;;;;;;;;;;5047283;27;91505;-78
2023/04/07 00:44:01;;;;;;;8.65;2.20;;;;;;;;;;5062589;27;112728;-79
2023/04/07 00:46:27;;;;;;;9.05;2.10;;;;;;;;;;5062131;27;92551;-79
2023/04/07 00:48:54;;;;;;;10.45;1.83;;;;;;;;;;5025900;27;94848;-79
2023/04/07 00:51:21;;;;;;;9.02;1.90;;;;;;;;;;5042876;27;94687;-78
2023/04/07 00:53:48;;;;;;;8.50;2.40;;;;;;;;;;5044095;27;96292;-78
2023/04/07 00:56:15;;;;;;;6.75;2.10;;;;;;;;;;5060799;27;92535;-78
2023/04/07 00:58:41;;;;;;;8.13;2.17;;;;;;;;;;5043039;27;92806;-78
2023/04/07 01:01:12;;;;;;;8.23;2.35;;;;;;;;;;5043793;27;92962;-79
2023/04/07 01:03:43;;;;;;;8.15;2.35;;;;;;;;;;5046912;27;92589;-78
2023/04/07 01:06:13;;;;;;;7.55;2.28;;;;;;;;;;5042699;27;91938;-78
2023/04/07 01:08:50;;;;;;;7.00;2.30;;;;;;;;;;5043737;27;92585;-78
2023/04/07 01:11:25;;;;;;;8.88;2.65;;;;;;;;;;5064026;27;92572;-78
2023/04/07 01:13:53;;;;;;;8.85;2.45;;;;;;;;;;5042243;27;94999;-78
2023/04/07 01:16:47;;;;;;;6.68;2.33;;;;;;;;;;5043131;27;99118;-77
2023/04/07 01:19:22;;;;;;;7.15;2.63;;;;;;;;;;5043289;27;93072;-78
2023/04/07 01:21:55;;;;;;;6.88;2.58;;;;;;;;;;5044328;27;92103;-78
2023/04/07 01:24:21;;;;;;;;;;;;;;;;;;5043218;27;92887;-79
2023/04/07 01:26:48;;;;;;;7.18;2.60;;;;;;;;;;5046996;27;121136;-79
2023/04/07 01:29:17;;;;;;;9.00;3.00;;;;;;;;;;5062179;27;92430;-79
2023/04/07 01:31:45;;;;;;;7.50;2.75;;;;;;;;;;5062561;27;93331;-79
2023/04/07 01:34:13;;;;;;;7.00;2.55;;;;;;;;;;5059654;27;92134;-79
2023/04/07 01:36:40;;;;;;;8.45;2.50;;;;;;;;;;5029062;27;95106;-79
2023/04/07 01:39:07;;;;;;;7.13;2.80;;;;;;;;;;5059332;27;95116;-79
2023/04/07 01:41:34;;;;;;;6.82;2.60;;;;;;;;;;5061494;27;92596;-81
2023/04/07 01:44:02;;;;;;;8.00;2.60;;;;;;;;;;5061062;27;92593;-79
2023/04/07 01:46:28;;;;;;;7.65;2.53;;;;;;;;;;5061412;27;92754;-79
2023/04/07 01:48:55;;;;;;;7.85;2.92;;;;;;;;;;5046270;27;92341;-79
2023/04/07 01:51:22;;;;;;;7.57;2.58;;;;;;;;;;5060532;27;92913;-79
2023/04/07 01:53:49;;;;;;;7.80;3.00;;;;;;;;;;5061886;27;92524;-80
2023/04/07 01:56:16;;;;;;;8.40;2.60;;;;;;;;;;5042412;27;94625;-79
2023/04/07 01:58:47;;;;;;;7.85;2.50;;;;;;;;;;5059928;27;93217;-80
2023/04/07 02:01:16;;;;;;;8.82;3.05;;;;;;;;;;5058081;27;93417;-80
2023/04/07 02:03:47;;;;;;;8.85;3.13;;;;;;;;;;5041704;27;94836;-80
2023/04/07 02:06:16;;;;;;;7.63;3.10;;;;;;;;;;5041811;27;92707;-79
2023/04/07 02:08:46;;;;;;;11.32;3.50;;;;;;;;;;5012400;28;92452;-79
2023/04/07 02:11:14;;;;;;;10.20;3.50;;;;;;;;;;5038705;27;95757;-79
2023/04/07 02:13:42;;;;;;;7.78;3.13;;;;;;;;;;5061140;27;92482;-79
2023/04/07 02:16:11;;;;;;;9.35;3.20;;;;;;;;;;5041510;27;92501;-79
2023/04/07 02:18:38;;;;;;;8.20;3.40;;;;;;;;;;5060427;27;92715;-79
2023/04/07 02:21:04;;;;;;;8.73;3.63;;;;;;;;;;5042761;27;91474;-79
2023/04/07 02:23:33;;;;;;;7.95;3.20;;;;;;;;;;5061104;27;92363;-80
2023/04/07 02:26:00;;;;;;;9.82;3.63;;;;;;;;;;5041549;27;92409;-79
2023/04/07 02:28:26;;;;;;;10.65;3.92;;;;;;;;;;5059061;27;94701;-80
2023/04/07 02:30:53;;;;;;;13.77;3.67;;;;;;;;;;5063568;27;95306;-80
2023/04/07 02:33:19;;;;;;;9.05;3.03;;;;;;;;;;5042423;27;92794;-80
2023/04/07 02:35:45;;;;;;;10.63;3.80;;;;;;;;;;5060402;27;92390;-80
2023/04/07 02:38:12;;;;;;;9.27;3.63;;;;;;;;;;5041226;27;94456;-80
2023/04/07 02:40:38;;;;;;;11.45;3.83;;;;;;;;;;5042241;27;92342;-80
2023/04/07 02:43:05;;;;;;;11.57;3.70;;;;;;;;;;5042258;27;94898;-80
2023/04/07 02:45:31;;;;;;;9.25;3.50;;;;;;;;;;5060824;27;93249;-79
2023/04/07 02:47:58;;;;;;;9.93;3.40;;;;;;;;;;5022632;27;92141;-79
2023/04/07 02:50:25;;;;;;;12.90;3.80;;;;;;;;;;5040126;27;94644;-79
2023/04/07 02:52:51;;;;;;;9.15;3.40;;;;;;;;;;5061509;27;95139;-78
2023/04/07 02:55:18;;;;;;;9.20;3.30;;;;;;;;;;5060171;27;95120;-79
2023/04/07 02:57:44;;;;;;;10.70;3.30;;;;;;;;;;5042109;27;92623;-79
2023/04/07 03:00:21;;;;;;;12.55;3.47;;;;;;;;;;5040264;27;92368;-79
2023/04/07 03:03:03;;;;;;;12.05;3.75;;;;;;;;;;5027037;27;94829;-79
2023/04/07 03:05:33;;;;;;;10.85;3.40;;;;;;;;;;5041905;27;95019;-79
2023/04/07 03:08:01;;;;;;;9.45;3.08;;;;;;;;;;5024847;27;92130;-79
2023/04/07 03:10:28;;;;;;;10.93;3.50;;;;;;;;;;5041476;27;94485;-80
2023/04/07 03:12:54;;;;;;;10.32;3.50;;;;;;;;;;5042350;27;92688;-80
2023/04/07 03:15:21;;;;;;;8.77;3.75;;;;;;;;;;5044719;27;92195;-80
2023/04/07 03:17:49;;;;;;;9.68;3.20;;;;;;;;;;5038809;27;95749;-80
2023/04/07 03:20:16;;;;;;;12.55;3.47;;;;;;;;;;5023708;28;92301;-80
2023/04/07 03:22:45;;;;;;;9.90;3.33;;;;;;;;;;5040477;27;95589;-80
2023/04/07 03:25:20;;;;;;;9.88;3.40;;;;;;;;;;5017921;27;94459;-80
2023/04/07 03:27:47;;;;;;;8.80;3.30;;;;;;;;;;5021452;28;92080;-79
2023/04/07 03:30:14;;;;;;;8.02;3.03;;;;;;;;;;5031134;27;93733;-79
2023/04/07 03:32:42;;;;;;;11.77;3.47;;;;;;;;;;5040699;27;92797;-79
2023/04/07 03:35:09;;;;;;;8.90;2.88;;;;;;;;;;5042186;27;91799;-79
2023/04/07 03:37:36;;;;;;;10.02;3.05;;;;;;;;;;5044537;27;94693;-79
2023/04/07 03:40:05;;;;;;;10.27;3.10;;;;;;;;;;5040831;27;92762;-79
2023/04/07 03:46:28;;;;;;;10.18;3.17;;;;;;;;;;5052133;27;96829;-79
2023/04/07 03:48:54;;;;;;;11.63;2.90;;;;;;;;;;5038321;27;92339;-79
2023/04/07 03:51:21;;;;;;;11.45;3.22;;;;;;;;;;5031515;27;92377;-79
2023/04/07 03:53:52;;;;;;;12.98;3.33;;;;;;;;;;5020841;27;93822;-79
2023/04/07 03:56:39;;;;;;;9.85;2.78;;;;;;;;;;5038309;27;92788;-79
2023/04/07 03:59:06;;;;;;;10.85;3.13;;;;;;;;;;5031546;27;92647;-79
2023/04/07 04:01:38;;;;;;;11.45;3.15;;;;;;;;;;5045421;27;94667;-79
2023/04/07 04:04:10;;;;;;;8.75;2.63;;;;;;;;;;5045736;27;93242;-79
2023/04/07 04:06:37;;;;;;;10.57;3.03;;;;;;;;;;5024762;27;95816;-79
2023/04/07 04:09:21;;;;;;;10.98;3.08;;;;;;;;;;5032410;27;94552;-79
2023/04/07 04:11:48;;;;;;;8.93;2.85;;;;;;;;;;5055031;27;97316;-79
2023/04/07 04:14:15;;;;;;;10.73;3.10;;;;;;;;;;5027120;27;95293;-79
2023/04/07 04:16:47;;;;;;;10.18;2.90;;;;;;;;;;5016467;28;92090;-78
2023/04/07 04:19:27;;;;;;;11.50;2.70;;;;;;;;;;5041070;27;94400;-78
2023/04/07 04:21:56;;;;;;;11.48;3.35;;;;;;;;;;5043796;27;95306;-79
2023/04/07 04:24:25;;;;;;;11.20;2.92;;;;;;;;;;5023623;27;99399;-77
2023/04/07 04:26:55;;;;;;;13.65;3.08;;;;;;;;;;5043542;27;93565;-78
2023/04/07 04:29:22;;;;;;;9.45;2.67;;;;;;;;;;5043935;27;92434;-78
2023/04/07 04:31:48;;;;;;;14.65;2.92;;;;;;;;;;5035124;27;94288;-78
2023/04/07 04:34:16;;;;;;;12.52;3.03;;;;;;;;;;5021653;27;98143;-78
2023/04/07 04:36:44;;;;;;;11.93;3.25;;;;;;;;;;5034182;27;92095;-78
2023/04/07 04:39:11;;;;;;;13.13;2.75;;;;;;;;;;5030127;28;95138;-78
2023/04/07 04:41:37;;;;;;;10.52;2.78;;;;;;;;;;5049099;27;93382;-78
2023/04/07 04:44:05;;;;;;;;;;;;;;;;;;5046947;27;92448;-77
2023/04/07 04:46:31;;;;;;;13.00;3.00;;;;;;;;;;5028023;28;95403;-77
2023/04/07 04:48:58;;;;;;;10.40;3.00;;;;;;;;;;5048350;27;92531;-77
2023/04/07 04:51:25;;;;;;;13.88;3.58;;;;;;;;;;5038772;27;94983;-78
2023/04/07 04:53:57;;;;;;;12.10;3.30;;;;;;;;;;5004132;28;92670;-77
2023/04/07 04:56:25;;;;;;;12.20;3.22;;;;;;;;;;5026609;27;93099;-78
2023/04/07 04:58:52;;;;;;;9.82;3.22;;;;;;;;;;5009232;27;94415;-79
2023/04/07 05:01:31;;;;;;;11.40;3.50;;;;;;;;;;5039644;27;93639;-78
2023/04/07 05:04:09;;;;;;;11.10;3.15;;;;;;;;;;5027432;27;94005;-78
2023/04/07 05:06:40;;;;;;;13.65;3.38;;;;;;;;;;5040366;27;92534;-78
2023/04/07 05:09:10;;;;;;;12.02;2.90;;;;;;;;;;5044212;27;92641;-78
2023/04/07 05:11:41;;;;;;;10.70;2.88;;;;;;;;;;5031093;28;94245;-78
2023/04/07 05:14:08;;;;;;;8.90;2.80;;;;;;;;;;5054390;27;92730;-78
2023/04/07 05:16:37;;;;;;;11.50;3.20;;;;;;;;;;5039758;27;91542;-78
2023/04/07 05:19:05;;;;;;;9.52;3.03;;;;;;;;;;5023269;27;94532;-78
2023/04/07 05:21:31;;;;;;;9.38;2.90;;;;;;;;;;5022668;27;95344;-79
2023/04/07 05:24:01;;;;;;;13.70;2.95;;;;;;;;;;5034389;27;94894;-79
2023/04/07 05:26:29;;;;;;;12.38;2.63;;;;;;;;;;5039599;27;95216;-79
2023/04/07 05:28:57;;;;;;;9.60;2.67;;;;;;;;;;5026093;28;95205;-79
2023/04/07 05:31:24;;;;;;;9.77;2.50;;;;;;;;;;5028896;27;94894;-79
2023/04/07 05:33:54;;;;;;;10.00;2.72;;;;;;;;;;5014172;28;92816;-79
2023/04/07 05:36:24;;;;;;;8.15;2.50;;;;;;;;;;4988770;28;93686;-79
2023/04/07 05:38:54;;;;;;;8.38;2.45;;;;;;;;;;5028525;28;94649;-79
2023/04/07 05:41:21;;;;;;;10.73;2.38;;;;;;;;;;5020138;28;92591;-80
2023/04/07 05:43:47;;;;;;;12.38;2.67;;;;;;;;;;5021129;28;92021;-79
2023/04/07 05:46:15;;;;;;;8.30;2.60;;;;;;;;;;5048245;27;92981;-79
2023/04/07 05:48:55;;;;;;;7.43;2.30;;;;;;;;;;5034313;27;98144;-79
2023/04/07 05:51:23;;;;;;;8.98;2.50;;;;;;;;;;5032207;27;92841;-79
2023/04/07 05:53:52;;;;;;;9.98;2.65;;;;;;;;;;5031343;27;92925;-79
2023/04/07 05:56:21;;;;;;;8.95;2.42;;;;;;;;;;5034758;27;92877;-81
2023/04/07 05:58:47;;;;;;;9.25;2.50;;;;;;;;;;5025499;27;92592;-80
2023/04/07 06:01:15;;;;;;;;;;;;;;;;;;5025005;28;96152;-80
2023/04/07 06:03:42;;;;;;;9.25;2.60;;;;;;;;;;4988795;28;99507;-80
2023/04/07 06:06:13;;;;;;;7.63;2.30;;;;;;;;;;4975207;28;95228;-80
2023/04/07 06:08:40;;;;;;;7.03;2.20;;;;;;;;;;4995013;28;95538;-79
2023/04/07 06:11:07;;;;;;;8.52;2.30;;;;;;;;;;4987925;28;92544;-78
2023/04/07 06:13:33;;;;;;;9.27;2.30;;;;;;;;;;4987282;28;96004;-79
2023/04/07 06:16:00;;;;;;;9.45;2.40;;;;;;;;;;4996153;28;92375;-79
2023/04/07 06:18:26;;;;;;;8.95;2.60;;;;;;;;;;5000271;28;94423;-79
2023/04/07 06:20:53;;;;;;;8.23;2.45;;;;;;;;;;5003031;28;93631;-79
2023/04/07 06:23:19;;;;;;;8.43;2.40;;;;;;;;;;5009351;28;92312;-80
2023/04/07 06:25:50;;;;;;;7.65;2.58;;;;;;;;;;4998398;28;95270;-80
2023/04/07 06:28:17;;;;;;;6.85;2.33;;;;;;;;;;4999501;28;93696;-80
2023/04/07 06:30:43;;;;;;;10.27;2.92;;;;;;;;;;4998542;28;91247;-80
2023/04/07 06:33:11;;;;;;;9.80;2.63;;;;;;;;;;5001679;28;93008;-79
2023/04/07 06:35:40;;;;;;;7.65;2.22;;;;;;;;;;5005299;28;92233;-80
2023/04/07 06:38:07;;;;;;;;;;;;;;;;;;5012528;28;94556;-80
2023/04/07 06:40:33;;;;;;;9.13;2.70;;;;;;;;;;5007619;28;121013;-79
2023/04/07 06:43:00;;;;;;;7.35;2.28;;;;;;;;;;5000774;28;92238;-80
2023/04/07 06:45:38;;;;;;;8.52;2.55;;;;;;;;;;5007109;28;95123;-80
2023/04/07 06:48:05;;;;;;;10.30;2.65;;;;;;;;;;5009854;28;93254;-80
2023/04/07 06:50:31;;;;;;;9.90;2.50;;;;;;;;;;5004015;28;92407;-80
2023/04/07 06:52:58;;;;;;;6.03;2.22;;;;;;;;;;5015092;28;92917;-80
2023/04/07 06:55:26;;;;;;;9.52;2.53;;;;;;;;;;5009078;28;91495;-78
2023/04/07 06:57:53;;;;;;;10.95;2.70;;;;;;;;;;5005558;28;91973;-78
2023/04/07 07:00:21;;;;;;;11.65;2.53;;;;;;;;;;5003891;28;93019;-79
2023/04/07 07:02:48;;;;;;;9.95;2.78;;;;;;;;;;5026433;27;94848;-79
2023/04/07 07:05:15;;;;;;;15.00;2.92;;;;;;;;;;5027386;27;95611;-79
2023/04/07 07:07:41;;;;;;;11.25;2.67;;;;;;;;;;5012439;28;92903;-79
2023/04/07 07:10:09;;;;;;;10.80;3.22;;;;;;;;;;5001313;27;92343;-79
2023/04/07 07:12:36;;;;;;;12.20;3.42;;;;;;;;;;5013543;28;93417;-80
2023/04/07 07:15:02;;;;;;;9.07;2.75;;;;;;;;;;5012553;28;93604;-80
2023/04/07 07:17:29;;;;;;;12.25;3.15;;;;;;;;;;5025044;28;92234;-80
2023/04/07 07:19:55;;;;;;;8.30;3.40;;;;;;;;;;5019457;28;92352;-80
2023/04/07 07:22:22;;;;;;;9.73;3.03;;;;;;;;;;5020293;28;92539;-80
2023/04/07 07:24:49;;;;;;;9.38;3.00;;;;;;;;;;5019459;28;92482;-81
2023/04/07 07:27:16;;;;;;;;;;;;;;;;;;5032968;28;98211;-81
2023/04/07 07:29:42;;;;;;;9.98;2.83;;;;;;;;;;5008149;28;92216;-80
2023/04/07 07:32:09;;;;;;;10.35;2.70;;;;;;;;;;5004375;27;92396;-79
2023/04/07 07:34:35;;;;;;;9.32;2.63;;;;;;;;;;5018504;27;92798;-80
2023/04/07 07:37:02;;;;;;;11.13;2.65;;;;;;;;;;4999890;28;92070;-80
2023/04/07 07:39:28;;;;;;;9.20;2.53;;;;;;;;;;5002535;28;92501;-79
2023/04/07 07:41:55;;;;;;;9.25;2.83;;;;;;;;;;5000872;28;92620;-79
2023/04/07 07:44:22;;;;;;;10.77;2.67;;;;;;;;;;5009502;28;92514;-79
2023/04/07 07:46:49;;;;;;;7.03;2.33;;;;;;;;;;4999016;28;93111;-79
2023/04/07 07:49:16;;;;;;;12.20;2.83;;;;;;;;;;5008426;28;92380;-79
2023/04/07 07:51:44;;;;;;;12.85;2.50;;;;;;;;;;5015296;28;94781;-79
2023/04/07 07:54:11;;;;;;;8.23;2.20;;;;;;;;;;5016008;28;93554;-79
2023/04/07 07:56:37;;;;;;;9.43;2.33;;;;;;;;;;5017063;28;92887;-79
2023/04/07 07:59:07;;;;;;;11.98;2.35;;;;;;;;;;5021273;28;93103;-79
2023/04/07 08:01:33;;;;;;;8.07;2.30;;;;;;;;;;5045765;27;92805;-79
2023/04/07 08:04:00;;;;;;;9.95;2.35;;;;;;;;;;5046909;27;92680;-79
2023/04/07 08:06:28;;;;;;;12.07;2.38;;;;;;;;;;5048901;27;92738;-79
2023/04/07 08:08:54;;;;;;;9.85;2.30;;;;;;;;;;5039345;27;91395;-79
2023/04/07 08:11:21;;;;;;;15.43;2.63;;;;;;;;;;5051538;27;94537;-80
2023/04/07 08:13:48;;;;;;;;;;;;;;;;;;5046845;27;93337;-78
2023/04/07 08:16:15;;;;;;;8.98;2.60;;;;;;;;;;5019793;27;101482;-79
2023/04/07 08:18:41;;;;;;;10.70;2.10;;;;;;;;;;5040876;27;95254;-79
2023/04/07 08:21:08;;;;;;;11.20;2.40;;;;;;;;;;5058281;27;93256;-80
2023/04/07 08:23:34;;;;;;;7.65;2.10;;;;;;;;;;5061656;27;91902;-79
2023/04/07 08:26:01;;;;;;;7.38;2.08;;;;;;;;;;5057149;27;92900;-80
2023/04/07 08:28:27;;;;;;;8.02;2.00;;;;;;;;;;5029952;27;92913;-79
2023/04/07 08:30:54;;;;;;;8.52;2.00;;;;;;;;;;5038748;27;93209;-79
2023/04/07 08:33:20;;;;;;;8.68;1.95;;;;;;;;;;5040080;27;93761;-81
2023/04/07 08:35:47;;;;;;;12.50;2.08;;;;;;;;;;5042539;27;92364;-80
2023/04/07 08:38:13;;;;;;;6.85;1.70;;;;;;;;;;5037579;27;92458;-83
2023/04/07 08:40:40;;;;;;;7.43;1.90;;;;;;;;;;5050876;27;94708;-80
2023/04/07 08:43:08;;;;;;;6.45;1.65;;;;;;;;;;5041254;27;92469;-79
2023/04/07 08:45:39;;;;;;;5.22;1.60;;;;;;;;;;5042912;27;92735;-79
2023/04/07 08:48:15;;;;;;;6.82;1.50;;;;;;;;;;5022735;27;92912;-80
2023/04/07 08:50:43;;;;;;;6.85;1.80;;;;;;;;;;5038078;27;92296;-80
2023/04/07 08:53:12;;;;;;;9.77;1.85;;;;;;;;;;5041445;27;92411;-79
2023/04/07 08:55:39;;;;;;;11.98;2.50;;;;;;;;;;5039766;27;92144;-78
2023/04/07 08:58:11;;;;;;;9.65;2.30;;;;;;;;;;5041010;27;92576;-78
2023/04/07 09:00:42;;;;;;;12.30;2.75;;;;;;;;;;5040056;27;92714;-78
2023/04/07 09:03:08;;;;;;;13.65;2.63;;;;;;;;;;5038206;27;92333;-78
2023/04/07 09:05:37;;;;;;;9.10;2.08;;;;;;;;;;5036920;27;95368;-78
2023/04/07 09:08:04;;;;;;;11.27;2.33;;;;;;;;;;5032790;27;92437;-79
2023/04/07 09:10:30;;;;;;;10.20;2.17;;;;;;;;;;5030488;27;94941;-79
2023/04/07 09:12:57;;;;;;;9.25;2.10;;;;;;;;;;5044859;27;93145;-79
2023/04/07 09:15:25;;;;;;;10.20;2.35;;;;;;;;;;5020919;28;92281;-79
2023/04/07 09:17:51;;;;;;;8.77;2.17;;;;;;;;;;5036134;28;93112;-79
2023/04/07 09:20:18;;;;;;;10.23;2.10;;;;;;;;;;5039636;27;92983;-79
2023/04/07 09:22:44;;;;;;;7.97;1.90;;;;;;;;;;5038763;27;91624;-79
2023/04/07 09:25:18;;;;;;;7.00;1.90;;;;;;;;;;5029304;28;92798;-80
2023/04/07 09:28:05;;;;;;;9.68;2.15;;;;;;;;;;5030537;28;93076;-79
2023/04/07 09:30:32;;;;;;;8.40;2.10;;;;;;;;;;5037302;27;99317;-80
2023/04/07 09:32:59;;;;;;;7.03;1.88;;;;;;;;;;5023173;28;92238;-79
2023/04/07 09:35:27;;;;;;;6.63;1.85;;;;;;;;;;5050129;27;93006;-79
2023/04/07 09:38:20;;;;;;;8.75;2.17;;;;;;;;;;5045523;27;92605;-79
2023/04/07 09:40:50;;;;;;;9.13;1.90;;;;;;;;;;5016329;28;97545;-79
2023/04/07 09:43:17;;;;;;;9.48;2.17;;;;;;;;;;5018689;28;92766;-79
2023/04/07 09:45:44;;;;;;;7.95;2.05;;;;;;;;;;5017606;28;93510;-79
2023/04/07 09:48:20;;;;;;;8.05;2.20;;;;;;;;;;5028753;27;93313;-79
2023/04/07 09:50:50;;;;;;;7.90;2.03;;;;;;;;;;5043022;27;92399;-79
2023/04/07 09:53:21;;;;;;;9.85;2.10;;;;;;;;;;5040301;27;93637;-79
2023/04/07 09:55:48;;;;;;;7.28;2.10;;;;;;;;;;5037966;27;95130;-78
2023/04/07 09:58:15;;;;;;;8.48;1.65;;;;;;;;;;5021266;27;97500;-79
2023/04/07 10:00:42;;;;;;;8.35;2.00;;;;;;;;;;5039400;27;92590;-78
2023/04/07 10:03:09;;;;;;;7.80;1.83;;;;;;;;;;5040357;27;92678;-78
2023/04/07 10:05:36;;;;;;;7.93;2.10;;;;;;;;;;5038025;27;92610;-78
2023/04/07 10:08:02;;;;;;;6.22;1.70;;;;;;;;;;5034836;27;94773;-78
2023/04/07 10:10:30;;;;;;;5.65;1.70;;;;;;;;;;5021760;28;92050;-79
2023/04/07 10:12:57;;;;;;;6.22;1.88;;;;;;;;;;5042484;27;92646;-78
2023/04/07 10:15:24;;;;;;;6.82;1.80;;;;;;;;;;5039495;28;92827;-78
2023/04/07 10:17:52;;;;;;;6.45;1.50;;;;;;;;;;5021105;28;94672;-77
2023/04/07 10:20:21;;;;;;;7.40;1.80;;;;;;;;;;5012617;27;95171;-77
2023/04/07 10:22:50;;;;;;;7.38;1.73;;;;;;;;;;5026216;27;92764;-79
2023/04/07 10:25:18;;;;;;;5.43;1.52;;;;;;;;;;5018107;28;92294;-79
2023/04/07 10:27:50;;;;;;;5.57;1.60;;;;;;;;;;5023694;27;92763;-79
2023/04/07 10:30:19;;;;;;;6.82;1.65;;;;;;;;;;5019226;28;92188;-79
2023/04/07 10:32:50;;;;;;;7.28;1.60;;;;;;;;;;5027017;27;92639;-79
2023/04/07 10:35:17;;;;;;;5.00;1.63;;;;;;;;;;5001046;28;92322;-79
2023/04/07 10:38:07;;;;;;;7.00;1.83;;;;;;;;;;5036374;27;93752;-78
2023/04/07 10:40:34;;;;;;;6.53;1.58;;;;;;;;;;5035967;27;97832;-79
2023/04/07 10:43:01;;;;;;;5.95;1.55;;;;;;;;;;5050336;27;92434;-79
2023/04/07 10:45:54;;;;;;;6.38;1.63;;;;;;;;;;5048159;27;94773;-78
2023/04/07 10:48:22;;;;;;;5.28;1.55;;;;;;;;;;5048625;27;93375;-77
2023/04/07 10:51:03;;;;;;;6.18;1.52;;;;;;;;;;5042131;27;92018;-77
2023/04/07 10:53:30;;;;;;;5.95;1.45;;;;;;;;;;5050933;27;92363;-78
2023/04/07 10:55:58;;;;;;;6.47;1.60;;;;;;;;;;5046700;27;95043;-77
2023/04/07 10:58:24;;;;;;;5.68;1.60;;;;;;;;;;5044476;27;96705;-77
2023/04/07 11:01:00;;;;;;;6.53;1.60;;;;;;;;;;5049833;27;92795;-78
2023/04/07 11:03:28;;;;;;;5.65;1.50;;;;;;;;;;5045494;27;91772;-78
2023/04/07 11:06:05;;;;;;;4.95;1.50;;;;;;;;;;5041373;27;92409;-78
2023/04/07 11:08:35;;;;;;;5.78;1.50;;;;;;;;;;5040000;27;97474;-78
2023/04/07 11:11:02;;;;;;;4.00;1.40;;;;;;;;;;5029070;27;95045;-78
2023/04/07 11:13:38;;;;;;;3.80;1.40;;;;;;;;;;5038120;27;94908;-79
2023/04/07 11:16:05;;;;;;;5.43;1.50;;;;;;;;;;5042730;27;94456;-78
2023/04/07 11:18:32;;;;;;;3.95;1.35;;;;;;;;;;5040514;27;92427;-77
2023/04/07 11:20:58;;;;;;;5.57;1.38;;;;;;;;;;5047317;27;93737;-77
2023/04/07 11:23:26;;;;;;;4.82;1.63;;;;;;;;;;5041204;27;92109;-78
2023/04/07 11:26:00;;;;;;;4.15;1.50;;;;;;;;;;5058865;27;92684;-77
2023/04/07 11:28:27;;;;;;;4.28;1.40;;;;;;;;;;4993210;27;98502;-78
2023/04/07 11:30:53;;;;;;;4.55;1.38;;;;;;;;;;5020712;28;92087;-78
2023/04/07 11:33:24;;;;;;;5.95;1.50;;;;;;;;;;5024736;28;92500;-80
2023/04/07 11:35:55;;;;;;;11.77;2.03;;;;;;;;;;5015166;28;96959;-77
2023/04/07 11:38:23;;;;;;;6.00;1.63;;;;;;;;;;5039473;27;92195;-78
2023/04/07 11:40:50;;;;;;;11.75;1.95;;;;;;;;;;5023487;28;92553;-77
2023/04/07 11:43:21;;;;;;;6.20;1.70;;;;;;;;;;5038415;27;92775;-78
2023/04/07 11:46:03;;;;;;;4.28;1.45;;;;;;;;;;5028457;27;94951;-77
2023/04/07 11:48:30;;;;;;;6.05;1.75;;;;;;;;;;5037025;27;99857;-78
2023/04/07 11:50:57;;;;;;;6.90;1.50;;;;;;;;;;5045256;27;92090;-77
2023/04/07 11:53:25;;;;;;;5.30;1.60;;;;;;;;;;5039521;27;92351;-78
2023/04/07 11:55:59;;;;;;;5.15;1.60;;;;;;;;;;5038089;27;92766;-77
2023/04/07 11:58:26;;;;;;;6.28;1.60;;;;;;;;;;5037781;27;92483;-77
2023/04/07 12:00:54;;;;;;;6.15;1.50;;;;;;;;;;5043080;27;94615;-77
2023/04/07 12:03:21;;;;;;;5.88;1.60;;;;;;;;;;5041822;27;93298;-78
2023/04/07 12:05:47;;;;;;;5.78;1.60;;;;;;;;;;5002765;27;94101;-77
2023/04/07 12:08:15;;;;;;;4.65;1.60;;;;;;;;;;5039281;27;93131;-78
2023/04/07 12:10:42;;;;;;;5.47;1.63;;;;;;;;;;5044071;27;92428;-78
2023/04/07 12:13:08;;;;;;;4.75;1.50;;;;;;;;;;5047535;27;92276;-78
2023/04/07 12:15:38;;;;;;;6.72;1.80;;;;;;;;;;5038777;27;92797;-78
2023/04/07 12:18:05;;;;;;;5.38;1.55;;;;;;;;;;5026674;28;91908;-78
2023/04/07 12:20:31;;;;;;;4.72;1.58;;;;;;;;;;5020440;28;92849;-78
2023/04/07 12:22:59;;;;;;;3.95;1.45;;;;;;;;;;5048282;27;92924;-78
2023/04/07 12:25:26;;;;;;;5.70;1.50;;;;;;;;;;5035277;27;94491;-78
2023/04/07 12:27:52;;;;;;;5.50;1.50;;;;;;;;;;5020779;27;92730;-78
2023/04/07 12:30:20;;;;;;;4.45;1.40;;;;;;;;;;5037496;27;92641;-77
2023/04/07 12:32:46;;;;;;;;;;;;;;;;;;5042403;27;92809;-78
2023/04/07 12:35:13;;;;;;;4.93;1.33;;;;;;;;;;5044292;27;116767;-78
2023/04/07 12:37:39;;;;;;;4.03;1.38;;;;;;;;;;5062655;27;92332;-78
2023/04/07 12:40:06;;;;;;;4.55;1.50;;;;;;;;;;5060834;27;93662;-78
2023/04/07 12:42:32;;;;;;;5.75;1.58;;;;;;;;;;5062267;27;92402;-78
2023/04/07 12:44:59;;;;;;;6.28;1.60;;;;;;;;;;5065163;27;92157;-77
2023/04/07 12:47:26;;;;;;;3.70;1.40;;;;;;;;;;5022465;28;93398;-78
2023/04/07 12:49:52;;;;;;;4.82;1.40;;;;;;;;;;5019651;28;94676;-78
2023/04/07 12:52:19;;;;;;;5.90;1.70;;;;;;;;;;5037919;27;94695;-78
2023/04/07 12:54:45;;;;;;;4.45;1.50;;;;;;;;;;5021160;28;92593;-78
2023/04/07 12:57:12;;;;;;;6.03;1.58;;;;;;;;;;5021285;28;92099;-77
2023/04/07 12:59:38;;;;;;;5.07;1.60;;;;;;;;;;5045425;27;92453;-78
2023/04/07 13:02:05;;;;;;;3.90;1.45;;;;;;;;;;5022519;28;92746;-78
2023/04/07 13:04:33;;;;;;;;;;;;;;;;;;5037311;27;92437;-78
2023/04/07 13:07:01;;;;;;;3.45;1.48;;;;;;;;;;5029261;28;96304;-77
2023/04/07 13:09:28;;;;;;;4.75;1.60;;;;;;;;;;5039502;27;92887;-77
2023/04/07 13:11:56;;;;;;;3.30;1.40;;;;;;;;;;5036242;27;94706;-77
2023/04/07 13:14:23;;;;;;;4.28;1.70;;;;;;;;;;5027427;27;95917;-76
2023/04/07 13:16:49;;;;;;;5.85;1.50;;;;;;;;;;5028915;27;92316;-77
2023/04/07 13:19:16;;;;;;;4.90;1.60;;;;;;;;;;5029071;27;92558;-77
2023/04/07 13:21:43;;;;;;;9.43;3.92;;;;;;;;;;5043139;27;93068;-77
2023/04/07 13:24:13;;;;;;;13.90;6.53;;;;;;;;;;5034841;27;92069;-77
2023/04/07 13:26:39;;;;;;;15.45;7.72;;;;;;;;;;5059310;27;93407;-78
2023/04/07 13:29:06;;;;;;;15.07;7.43;;;;;;;;;;5062645;27;92656;-77
2023/04/07 13:31:32;;;;;;;14.68;6.93;;;;;;;;;;5052327;27;92301;-78
2023/04/07 13:33:59;;;;;;;12.68;6.15;;;;;;;;;;5050943;27;93870;-77
2023/04/07 13:36:27;;;;;;;12.95;5.65;;;;;;;;;;5055995;27;93792;-79
2023/04/07 13:38:53;;;;;;;12.07;5.85;;;;;;;;;;5054317;27;94862;-79
2023/04/07 13:41:20;;;;;;;11.93;5.05;;;;;;;;;;5052249;27;92758;-80
2023/04/07 13:43:47;;;;;;;10.25;4.97;;;;;;;;;;5048956;27;92061;-79
2023/04/07 13:46:16;;;;;;;;;;;;;;;;;;5038698;27;94525;-79
2023/04/07 13:48:54;;;;;;;11.90;5.15;;;;;;;;;;5039085;27;92376;-79
2023/04/07 13:51:20;;;;;;;11.77;5.15;;;;;;;;;;5055121;27;92465;-79
2023/04/07 13:53:47;;;;;;;12.18;5.32;;;;;;;;;;5027276;27;95191;-81
2023/04/07 13:56:14;;;;;;;11.63;4.57;;;;;;;;;;5038115;27;91710;-80
2023/04/07 13:58:40;;;;;;;9.80;4.05;;;;;;;;;;5037646;27;93751;-79
2023/04/07 14:01:07;;;;;;;9.25;3.90;;;;;;;;;;5037438;27;94773;-79
2023/04/07 14:03:34;;;;;;;10.05;3.80;;;;;;;;;;5046964;27;94910;-80
2023/04/07 14:06:01;;;;;;;9.05;3.40;;;;;;;;;;5037534;27;94849;-79
2023/04/07 14:08:28;;;;;;;8.35;3.42;;;;;;;;;;5041055;27;95184;-80
2023/04/07 14:10:54;;;;;;;8.38;3.42;;;;;;;;;;5017005;27;92252;-81
2023/04/07 14:13:21;;;;;;;9.25;3.72;;;;;;;;;;5061463;27;92562;-80
2023/04/07 14:15:48;;;;;;;8.55;3.10;;;;;;;;;;5041374;27;95121;-80
2023/04/07 14:18:16;;;;;;;7.35;3.10;;;;;;;;;;5045060;27;93004;-80
2023/04/07 14:20:42;;;;;;;8.00;3.15;;;;;;;;;;5022494;27;91979;-80
2023/04/07 14:23:09;;;;;;;9.07;3.28;;;;;;;;;;5040596;27;92172;-79
2023/04/07 14:25:36;;;;;;;8.52;3.22;;;;;;;;;;5043151;27;92829;-79
2023/04/07 14:28:02;;;;;;;8.23;3.10;;;;;;;;;;5040121;27;94949;-78
2023/04/07 14:30:29;;;;;;;8.70;3.17;;;;;;;;;;5021166;27;92788;-78
2023/04/07 14:32:56;;;;;;;11.15;3.03;;;;;;;;;;5042946;27;92992;-78
2023/04/07 14:35:23;;;;;;;7.72;3.00;;;;;;;;;;5053748;27;94146;-79
2023/04/07 14:37:51;;;;;;;8.95;3.33;;;;;;;;;;5026251;27;92508;-77
2023/04/07 14:40:17;;;;;;;9.27;3.05;;;;;;;;;;5048661;27;92737;-74
2023/04/07 14:42:47;;;;;;;9.07;3.42;;;;;;;;;;5047848;27;92517;-76
2023/04/07 14:45:14;;;;;;;8.25;3.63;;;;;;;;;;5040548;27;94819;-75
2023/04/07 14:47:40;;;;;;;8.90;3.33;;;;;;;;;;5050217;27;93731;-76
2023/04/07 14:50:07;;;;;;;7.40;2.97;;;;;;;;;;5038335;27;92692;-76
2023/04/07 14:52:33;;;;;;;8.38;3.10;;;;;;;;;;5038569;27;95808;-76
2023/04/07 14:55:00;;;;;;;8.90;3.00;;;;;;;;;;5044703;27;93489;-76